LFTWLFMV

Guest
Details From LFTW - Garons Navy
To LFMV - Caumont
Flight Number -
Tags generated
Created
Modified
Stats Distance 23 nm / 43 km
Max Altitude 0 ft / 0 m
Waypoints 3
Social Downloads 0
Likes 0
Share VATSIM

Download

Looking for another format? Having issues loading an existing format? Contact us
Advertisement - Login to hide

Notes

Basic altitude profile: - Ascent Rate: 2500ft/min - Ascent Speed: 250kts - Cruise Altitude: 35000ft - Cruise Speed: 420kts - Descent Rate: 1500ft/min - Descent Speed: 250kts Options: - Use NATs: yes - Use PACOTS: yes - Use low airways: yes - Use high airways: yes

Route

LFTW CM LFMV

ID Type Via Altitude Latitude Longitude Leg Dist Tot Dist Heading (true) Name
O LFTW APT - 0 ft / 0 m 43.75744˚ 4.41639˚ - 0 nm - Garons Navy
CM NDB - 0 ft / 0 m 43.90828˚ 4.90539˚ 23 nm 23 nm 67° / 67° AVIGNON NDB
O LFMV APT - 0 ft / 0 m 43.90860˚ 4.90180˚ 0 nm 23 nm 277° / 277° Caumont

Altitude Profile

Advertisement - Login to hide

LFTW

Details ICAO LFTW (FNI)
Name Garons Navy
Region France
Timezone Europe/Paris (UTC+2.0)
Stats Elevation 308 ft / 94 m (AMSL)
Location 43.757444° 4.416388°
Runways 1
Magnetic Variation 1.406° E

METAR

LFTW 220700Z AUTO 00000KT CAVOK 17/14 Q1013

Decode

TAF

TAF LFTW 220551Z 2205/2303 CNL

Decode

Departure Runways

ID Width Length Bearing (true) Bearing (mag) Surface Threshold Offset Overrun Length
18 148 ft / 45 m 8,657 ft / 2,639 m 177.10° 175.69° Concrete 331 ft / 101 m 0 ft / 0 m
36 148 ft / 45 m 8,657 ft / 2,639 m 357.10° 355.69° Concrete 331 ft / 101 m 0 ft / 0 m

LFMV

Details ICAO LFMV (AVN)
Name Caumont
Region France
Timezone Europe/Paris (UTC+2.0)
Stats Elevation 124 ft / 38 m (AMSL)
Location 43.908602° 4.901796°
Runways 3
Magnetic Variation 1.523° E

METAR

LFMV 220700Z AUTO VRB02KT 9999 SCT011 SCT028 BKN033 17/15 Q1013 BECMG BKN013

Decode

TAF

Not found

Destination Runways

ID Width Length Bearing (true) Bearing (mag) Surface Threshold Offset Overrun Length
16 98 ft / 30 m 1,552 ft / 473 m 169.55° 168.03° Grass 0 ft / 0 m 0 ft / 0 m
17 148 ft / 45 m 6,173 ft / 1,882 m 169.00° 167.48° Asphalt 614 ft / 187 m 0 ft / 0 m
17R 164 ft / 50 m 2,299 ft / 701 m 169.00° 167.48° Grass 0 ft / 0 m 0 ft / 0 m
34 98 ft / 30 m 1,552 ft / 473 m 349.55° 348.03° Grass 0 ft / 0 m 0 ft / 0 m
35 148 ft / 45 m 6,173 ft / 1,882 m 349.00° 347.48° Asphalt 1,017 ft / 310 m 0 ft / 0 m
35L 164 ft / 50 m 2,299 ft / 701 m 349.00° 347.48° Grass 0 ft / 0 m 0 ft / 0 m

Approach Navaids

Runway Type Ident Frequency Range Bearing (true) Bearing (mag) Slope Elevation
17 Localiser AN 110.50 MHz 27 nm / 50 km 167.00° 165.48° - 124 ft / 38 m (AMSL)
17 Glidescope AN 110.50 MHz 10 nm / 19 km 169.00° 167.48° 3.00° 168 ft / 51 m (AMSL)
17 DME AN 110.50 MHz 27 nm / 50 km - - - 124 ft / 38 m (AMSL)
35 Localiser AN 110.50 MHz 18 nm / 33 km 348.79° 347.27° - 121 ft / 37 m (AMSL)
35 Glidescope AN 110.50 MHz 10 nm / 19 km 349.00° 347.48° 3.00° 121 ft / 37 m (AMSL)

Popular Alternatives